• Join FlightAware (Why Join?)
  • Login
  • US Flag 
09:36AM EDT


 

Airport Tracker/Info


-or-


 

Live Flight TrackerFlight Track Log ✈ N50CT ✈ 24-Jun-2013 ✈ KCXY - KHTF

Flight Track Log - Related Links

Times and Time Zones

All times are in EDT time to prevent confusion due to time zone crossing. See the N50CT flight status page for this flight to view local times or setup timezone preferences in your user account.

Time Position Orientation Groundspeed Altitude Reporting Facility
EDT Latitude Longitude Course Direction KTS MPH feet Rate Location/Type
08:44AM 40.4319 -76.9273 346° North  Level FlightAware Approximate
08:44AM 40.2569 -77.0539 343° North 123 142 4,800  Level New York Center
08:45AM 40.4674 -76.9420 339° North  Level FlightAware Approximate
08:45AM 40.2894 -77.0650 345° North 123 142 5,200  Level New York Center
08:46AM 40.5037 -76.9500 North  Level FlightAware Approximate
08:46AM 40.3225 -77.0736 349° North 129 148 5,800  Level New York Center
08:47AM 40.5400 -76.9593 343° North  Level FlightAware Approximate
08:47AM 40.3572 -77.0850 346° North 133 153 6,300  Level New York Center
08:48AM 40.5757 -76.9735 343° North  Level FlightAware Approximate
08:48AM 40.3922 -77.0961 346° North 123 142 6,900  Level New York Center
08:49AM 40.6115 -76.9878 343° North  Level FlightAware Approximate
08:49AM 40.4269 -77.1075 346° North 123 142 7,300  Level New York Center
08:50AM 40.4619 -77.1164 349° North 123 142 7,800 300 Climbing New York Center
08:51AM 40.4989 -77.1278 347° North 129 148 8,000 60 Climbing New York Center
08:52AM 40.5419 -77.1428 345° North 145 167 8,000  Level New York Center
08:53AM 40.5850 -77.1550 348° North 151 174 8,000  Level New York Center
08:54AM 40.6283 -77.1644 351° North 151 174 8,000  Level New York Center
08:55AM 40.6694 -77.1739 350° North 162 186 8,000  Level New York Center
08:56AM 40.7144 -77.1861 348° North 162 186 8,000  Level New York Center
08:57AM 40.7575 -77.2011 345° North 162 186 8,000  Level New York Center
08:58AM 40.8025 -77.2164 346° North 162 186 8,000  Level New York Center
08:59AM 40.8458 -77.2258 351° North 162 186 8,000  Level New York Center
09:00AM 40.8889 -77.2383 348° North 162 186 8,000  Level New York Center
09:01AM 40.9339 -77.2536 346° North 162 186 8,000  Level New York Center
09:02AM 40.9811 -77.2664 348° North 162 186 8,000  Level New York Center
09:03AM 41.0222 -77.2758 350° North 162 186 8,000  Level New York Center
09:04AM 41.0653 -77.2881 348° North 162 186 8,000  Level New York Center
09:05AM 41.1106 -77.3008 348° North 162 186 8,000  Level New York Center
09:06AM 41.1536 -77.3131 348° North 162 186 8,000  Level New York Center
09:07AM 41.1947 -77.3253 347° North 162 186 8,000  Level New York Center
09:08AM 41.2397 -77.3381 348° North 162 186 8,000  Level New York Center
09:09AM 41.2828 -77.3533 345° North 162 186 8,000  Level New York Center
09:10AM 41.3258 -77.3658 348° North 162 186 8,000  Level New York Center
09:11AM 41.3686 -77.3808 345° North 162 186 8,000  Level New York Center
09:12AM 41.4139 -77.3908 351° North 162 186 8,000  Level New York Center
09:13AM 41.4631 -77.4042 349° North 167 192 8,000  Level New York Center
09:14AM 41.5083 -77.4169 348° North 167 192 8,000  Level New York Center
09:15AM 41.5514 -77.4294 348° North 162 186 8,000  Level New York Center
09:17AM 41.6528 -77.4567 349° North 160 184 8,000  Level Cleveland Center
09:18AM 41.6947 -77.4739 343° North 165 190 8,100  Climbing Cleveland Center
09:19AM 41.7369 -77.4858 348° North 165 190 8,100 -60 Level Cleveland Center
09:20AM 41.7811 -77.4978 349° North 160 184 8,000  Descending Cleveland Center
09:21AM 41.8253 -77.5150 344° North 160 184 8,100  Climbing Cleveland Center
09:22AM 41.8653 -77.5272 347° North 160 184 8,000 -60 Descending Cleveland Center
09:23AM 41.9092 -77.5361 351° North 168 193 8,000 -120 Level Cleveland Center
09:24AM 41.9514 -77.5508 345° North 162 186 7,800 -420 Descending Cleveland Center
09:25AM 41.9994 -77.5628 350° North 162 186 7,200 -660 Descending Cleveland Center
09:26AM 42.0436 -77.5772 346° North 162 186 6,500 -780 Descending Cleveland Center
09:27AM 42.0919 -77.5833 355° North 162 186 5,700 -780 Descending Cleveland Center
09:28AM 42.1361 -77.5981 346° North 162 186 5,000 -720 Descending Cleveland Center